Time;durP1;ratioP1;P1;durP2;ratioP2;P2;SDS_P1;SDS_P2;PMS_P1;PMS_P2;Temp;Humidity;BMP_temperature;BMP_pressure;BME280_temperature;BME280_humidity;BME280_pressure;Samples;Min_cycle;Max_cycle;Signal;HPM_P1;HPM_P2
2023/01/22 00:01:58;;;;;;;63.22;60.83;;;9.90;96.80;;;;;;5047430;28;20357;-77
2023/01/22 00:04:24;;;;;;;64.78;62.28;;;9.80;96.70;;;;;;5046663;28;20029;-76
2023/01/22 00:06:49;;;;;;;67.32;64.72;;;9.80;96.80;;;;;;5047600;28;20458;-76
2023/01/22 00:09:15;;;;;;;66.72;64.13;;;9.80;96.70;;;;;;5046418;28;20036;-76
2023/01/22 00:11:41;;;;;;;68.85;66.25;;;9.80;97.00;;;;;;5029770;28;20397;-77
2023/01/22 00:14:07;;;;;;;70.90;68.20;;;9.80;96.80;;;;;;5046172;28;20374;-77
2023/01/22 00:16:33;;;;;;;69.88;67.20;;;9.80;96.80;;;;;;5045941;28;20467;-77
2023/01/22 00:18:59;;;;;;;71.70;69.00;;;9.80;96.80;;;;;;5029769;28;20029;-77
2023/01/22 00:21:26;;;;;;;72.45;69.68;;;9.80;96.80;;;;;;5029778;28;20029;-77
2023/01/22 00:23:52;;;;;;;71.07;68.35;;;9.70;96.70;;;;;;5045983;28;20445;-77
2023/01/22 00:26:19;;;;;;;72.57;69.78;;;9.70;96.70;;;;;;5047245;28;20079;-77
2023/01/22 00:28:45;;;;;;;72.70;69.90;;;9.70;96.70;;;;;;5047152;28;20029;-77
2023/01/22 00:31:13;;;;;;;73.22;70.43;;;9.70;96.80;;;;;;5029601;28;20044;-77
2023/01/22 00:33:40;;;;;;;74.00;71.20;;;9.70;96.80;;;;;;5047543;28;20041;-77
2023/01/22 00:36:08;;;;;;;73.63;70.82;;;9.70;96.80;;;;;;5047216;28;20510;-77
2023/01/22 00:38:34;;;;;;;78.65;75.65;;;9.60;96.80;;;;;;5047359;28;20029;-77
2023/01/22 00:41:05;;;;;;;78.40;75.40;;;9.60;96.70;;;;;;5045939;28;20044;-77
2023/01/22 00:43:32;;;;;;;75.00;72.10;;;9.60;96.70;;;;;;5047473;28;20044;-77
2023/01/22 00:45:59;;;;;;;78.72;75.72;;;9.60;96.80;;;;;;5047412;28;20029;-77
2023/01/22 00:48:24;;;;;;;77.13;74.13;;;9.60;96.80;;;;;;5047470;28;20508;-77
2023/01/22 00:50:50;;;;;;;79.90;76.85;;;9.60;96.80;;;;;;5029204;28;20037;-77
2023/01/22 00:53:16;;;;;;;78.13;75.13;;;9.60;96.80;;;;;;5045769;28;20308;-77
2023/01/22 00:55:53;;;;;;;76.20;73.30;;;9.60;96.80;;;;;;5045748;28;20061;-77
2023/01/22 00:58:19;;;;;;;76.65;73.68;;;9.60;96.80;;;;;;5046701;28;20044;-77
2023/01/22 01:00:45;;;;;;;77.07;74.15;;;9.70;96.80;;;;;;5047000;28;20423;-77
2023/01/22 01:03:26;;;;;;;76.07;73.18;;;9.70;96.80;;;;;;5045675;28;20102;-77
2023/01/22 01:05:56;;;;;;;75.93;73.03;;;9.70;96.80;;;;;;5046956;28;20036;-77
2023/01/22 01:08:24;;;;;;;74.10;71.25;;;9.70;96.80;;;;;;5045491;28;20029;-77
2023/01/22 01:10:58;;;;;;;75.30;72.40;;;9.70;96.80;;;;;;5045242;28;20039;-77
2023/01/22 01:13:24;;;;;;;77.70;74.72;;;9.70;96.80;;;;;;5045434;28;20033;-77
2023/01/22 01:15:58;;;;;;;75.93;73.03;;;9.70;96.80;;;;;;5050257;28;20118;-77
2023/01/22 01:18:24;;;;;;;75.95;73.05;;;9.70;96.80;;;;;;5050895;28;20029;-77
2023/01/22 01:20:57;;;;;;;76.88;73.97;;;9.80;96.80;;;;;;5049433;28;20033;-77
2023/01/22 01:23:24;;;;;;;74.63;71.80;;;9.70;96.80;;;;;;5049548;28;20029;-77
2023/01/22 01:25:50;;;;;;;75.60;72.70;;;9.70;96.80;;;;;;5050687;28;20044;-77
2023/01/22 01:28:16;;;;;;;74.80;72.00;;;9.70;96.80;;;;;;5050658;28;20029;-77
2023/01/22 01:30:43;;;;;;;76.63;73.72;;;9.70;96.80;;;;;;5050679;28;20463;-77
2023/01/22 01:33:08;;;;;;;76.43;73.53;;;9.80;96.80;;;;;;5050704;28;20043;-76
2023/01/22 01:35:34;;;;;;;72.80;70.00;;;9.80;96.80;;;;;;5049199;28;20026;-76
2023/01/22 01:38:00;;;;;;;77.15;74.25;;;9.80;96.80;;;;;;5032652;28;20044;-76
2023/01/22 01:40:26;;;;;;;74.25;71.40;;;9.80;96.80;;;;;;5048880;28;20029;-76
2023/01/22 01:42:52;;;;;;;78.70;75.80;;;9.80;96.80;;;;;;5016072;28;20474;-77
2023/01/22 01:45:30;;;;;;;82.50;79.43;;;9.70;96.80;;;;;;5049318;28;20052;-77
2023/01/22 01:48:22;;;;;;;77.60;74.70;;;9.70;96.70;;;;;;5048963;28;20074;-77
2023/01/22 01:50:56;;;;;;;76.70;73.90;;;9.70;96.70;;;;;;5050214;28;20103;-76
2023/01/22 01:53:23;;;;;;;78.88;75.97;;;9.60;96.70;;;;;;5048973;28;20390;-76
2023/01/22 01:55:49;;;;;;;76.32;73.47;;;9.60;96.80;;;;;;5048645;28;20055;-76
2023/01/22 01:58:20;;;;;;;78.55;75.65;;;9.60;96.80;;;;;;5048299;28;20025;-76
2023/01/22 02:00:49;;;;;;;77.63;74.72;;;9.60;96.80;;;;;;5049585;28;20485;-77
2023/01/22 02:03:15;;;;;;;77.07;74.22;;;9.50;96.80;;;;;;5050164;28;20025;-77
2023/01/22 02:05:41;;;;;;;79.45;76.55;;;9.60;96.80;;;;;;5049952;28;20026;-76
2023/01/22 02:08:08;;;;;;;79.25;76.35;;;9.50;96.80;;;;;;5050120;28;20025;-76
2023/01/22 02:10:34;;;;;;;77.28;74.38;;;9.50;96.80;;;;;;5049964;28;20021;-77
2023/01/22 02:13:06;;;;;;;77.70;74.80;;;9.50;96.80;;;;;;5048618;28;20119;-76
2023/01/22 02:15:32;;;;;;;77.70;74.80;;;9.50;96.80;;;;;;5048351;28;20029;-77
2023/01/22 02:17:58;;;;;;;;;;;9.60;96.90;;;;;;5049949;28;20096;-77
2023/01/22 02:20:23;;;;;;;78.38;75.47;;;9.60;96.90;;;;;;5049496;28;20015;-77
2023/01/22 02:22:49;;;;;;;75.93;73.13;;;9.60;96.80;;;;;;5049693;28;20032;-76
2023/01/22 02:25:16;;;;;;;76.50;73.70;;;9.60;96.80;;;;;;5049478;28;20049;-76
2023/01/22 02:27:42;;;;;;;78.35;75.45;;;9.60;96.80;;;;;;5048992;28;20049;-77
2023/01/22 02:30:08;;;;;;;81.00;78.00;;;9.60;96.80;;;;;;5048307;28;20068;-76
2023/01/22 02:32:33;;;;;;;75.25;72.45;;;9.60;96.80;;;;;;5049274;28;20033;-76
2023/01/22 02:34:59;;;;;;;77.13;74.22;;;9.60;96.80;;;;;;5049561;28;20043;-76
2023/01/22 02:37:25;;;;;;;78.22;75.32;;;9.70;96.80;;;;;;5049423;28;20033;-76
2023/01/22 02:39:51;;;;;;;79.45;76.55;;;9.70;96.80;;;;;;5015030;28;20025;-76
2023/01/22 02:42:16;;;;;;;77.07;74.20;;;9.70;96.80;;;;;;5031221;28;20139;-76
2023/01/22 02:44:42;;;;;;;76.03;73.22;;;9.70;96.80;;;;;;5031431;28;20025;-76
2023/01/22 02:47:08;;;;;;;74.72;71.95;;;9.70;96.80;;;;;;5031004;28;20059;-77
2023/01/22 02:49:33;;;;;;;71.05;68.45;;;9.70;96.80;;;;;;5050040;28;20116;-77
2023/01/22 02:51:59;;;;;;;74.88;72.07;;;9.70;96.80;;;;;;5031582;28;20396;-77
2023/01/22 02:54:25;;;;;;;74.10;71.40;;;9.70;96.80;;;;;;5048002;28;20033;-77
2023/01/22 02:56:51;;;;;;;72.43;69.72;;;9.70;96.80;;;;;;5047793;28;20128;-77
2023/01/22 02:59:17;;;;;;;71.95;69.28;;;9.70;96.80;;;;;;5028503;28;20057;-76
2023/01/22 03:01:42;;;;;;;73.10;70.40;;;9.70;96.80;;;;;;5047516;28;20084;-76
2023/01/22 03:04:11;;;;;;;71.80;69.15;;;9.70;96.80;;;;;;5048940;28;20043;-77
2023/01/22 03:06:39;;;;;;;70.82;68.22;;;9.80;96.90;;;;;;5047872;28;20043;-77
2023/01/22 03:09:05;;;;;;;73.70;71.00;;;9.70;96.80;;;;;;5048897;28;20033;-77
2023/01/22 03:11:34;;;;;;;73.50;70.80;;;9.70;96.80;;;;;;5047510;28;20047;-77
2023/01/22 03:22:14;;;;;;;72.50;69.80;;;9.70;96.90;;;;;;5048869;28;20155;-76
2023/01/22 03:24:40;;;;;;;74.07;71.32;;;9.70;96.90;;;;;;5048738;28;20090;-77
2023/01/22 03:27:06;;;;;;;72.88;70.18;;;9.70;96.80;;;;;;5048894;28;20035;-77
2023/01/22 03:29:32;;;;;;;76.35;73.55;;;9.70;96.90;;;;;;5048423;28;20028;-77
2023/01/22 03:31:58;;;;;;;75.43;72.63;;;9.70;96.80;;;;;;5047269;28;20163;-77
2023/01/22 03:34:25;;;;;;;75.22;72.43;;;9.70;96.90;;;;;;5030756;28;20480;-77
2023/01/22 03:36:51;;;;;;;75.13;72.32;;;9.70;96.90;;;;;;5048440;28;20139;-77
2023/01/22 03:39:17;;;;;;;77.15;74.30;;;9.70;96.90;;;;;;5047412;28;20025;-77
2023/01/22 03:41:42;;;;;;;73.05;70.35;;;9.70;96.90;;;;;;5046701;28;20475;-76
2023/01/22 03:44:10;;;;;;;74.28;71.53;;;9.70;96.90;;;;;;5047960;28;20029;-77
2023/01/22 03:46:36;;;;;;;73.15;70.45;;;9.70;96.90;;;;;;5030418;28;20133;-77
2023/01/22 03:49:02;;;;;;;70.95;68.32;;;9.70;96.90;;;;;;5048070;28;20115;-77
2023/01/22 03:51:28;;;;;;;69.72;67.13;;;9.70;96.90;;;;;;5046721;28;20108;-77
2023/01/22 03:53:54;;;;;;;72.28;69.57;;;9.70;96.90;;;;;;5046769;28;20036;-77
2023/01/22 03:56:22;;;;;;;69.32;66.72;;;9.70;96.90;;;;;;5046433;28;20481;-77
2023/01/22 03:58:48;;;;;;;70.13;67.53;;;9.70;96.90;;;;;;5047477;28;20037;-77
2023/01/22 04:01:20;;;;;;;72.47;69.78;;;9.80;96.90;;;;;;5046761;28;20025;-76
2023/01/22 04:03:46;;;;;;;71.07;68.47;;;9.80;96.90;;;;;;5046545;28;20057;-77
2023/01/22 04:06:12;;;;;;;;;;;9.80;96.90;;;;;;5046750;28;20120;-77
2023/01/22 04:08:40;;;;;;;74.50;71.75;;;9.80;96.90;;;;;;5047780;28;20004;-77
2023/01/22 04:11:06;;;;;;;74.20;71.47;;;9.80;96.80;;;;;;5047801;28;20146;-77
2023/01/22 04:13:33;;;;;;;77.45;74.55;;;9.80;96.90;;;;;;5047755;28;20098;-77
2023/01/22 04:16:00;;;;;;;77.35;74.45;;;9.80;96.80;;;;;;5030059;28;20517;-77
2023/01/22 04:18:25;;;;;;;75.95;73.15;;;9.80;96.90;;;;;;5047611;28;20021;-76
2023/01/22 04:20:52;;;;;;;79.20;76.30;;;9.80;96.90;;;;;;5047398;28;20036;-77
2023/01/22 04:23:19;;;;;;;78.43;75.53;;;9.80;96.90;;;;;;5047471;28;20108;-76
2023/01/22 04:25:45;;;;;;;75.95;73.15;;;9.80;96.90;;;;;;5047802;28;20484;-76
2023/01/22 04:28:11;;;;;;;80.57;77.57;;;9.80;96.90;;;;;;5046820;28;20036;-77
2023/01/22 04:30:37;;;;;;;;;;;9.80;96.90;;;;;;5030481;28;20458;-77
2023/01/22 04:33:03;;;;;;;79.32;76.43;;;9.80;96.90;;;;;;5047874;28;19944;-76
2023/01/22 04:35:29;;;;;;;80.75;77.75;;;9.80;96.80;;;;;;5046626;28;20029;-76
2023/01/22 04:37:55;;;;;;;80.13;77.13;;;9.80;96.80;;;;;;5047436;28;20044;-76
2023/01/22 04:40:21;;;;;;;;;;;9.80;96.80;;;;;;5048130;28;20524;-76
2023/01/22 04:42:46;;;;;;;75.68;72.88;;;9.80;96.90;;;;;;5047754;28;19948;-76
2023/01/22 04:45:12;;;;;;;76.90;74.00;;;9.80;96.80;;;;;;5046572;28;20037;-76
2023/01/22 04:47:47;;;;;;;77.30;74.40;;;9.80;96.80;;;;;;5046358;28;20427;-76
2023/01/22 04:50:25;;;;;;;74.68;71.88;;;9.80;96.80;;;;;;5048828;28;20485;-76
2023/01/22 04:52:52;;;;;;;77.50;74.60;;;9.80;96.90;;;;;;5051627;28;20025;-76
2023/01/22 04:55:18;;;;;;;76.20;73.30;;;9.90;96.90;;;;;;5050227;28;20033;-76
2023/01/22 04:57:44;;;;;;;78.05;75.15;;;9.90;96.90;;;;;;5033692;28;20043;-76
2023/01/22 05:00:11;;;;;;;77.60;74.70;;;9.90;96.90;;;;;;5051284;28;20060;-76
2023/01/22 05:02:37;;;;;;;77.00;74.10;;;9.90;96.90;;;;;;5049927;28;20048;-76
2023/01/22 05:05:03;;;;;;;;;;;9.90;96.90;;;;;;5051453;28;20358;-76
2023/01/22 05:07:29;;;;;;;78.32;75.43;;;9.90;96.90;;;;;;5051239;28;19927;-77
2023/01/22 05:09:55;;;;;;;74.95;72.15;;;9.90;96.80;;;;;;5050974;28;20481;-77
2023/01/22 05:12:20;;;;;;;76.72;73.82;;;9.90;96.80;;;;;;5049775;28;20427;-76
2023/01/22 05:14:46;;;;;;;79.05;76.05;;;9.90;96.90;;;;;;5049908;28;20033;-76
2023/01/22 05:17:12;;;;;;;78.97;75.97;;;9.90;96.90;;;;;;5050914;28;20060;-76
2023/01/22 05:19:37;;;;;;;78.78;75.80;;;9.90;96.90;;;;;;5051198;28;20270;-76
2023/01/22 05:22:03;;;;;;;80.45;77.45;;;9.90;96.90;;;;;;5016356;28;20037;-76
2023/01/22 05:24:29;;;;;;;77.20;74.30;;;9.90;96.90;;;;;;5049666;28;20071;-76
2023/01/22 05:26:55;;;;;;;79.38;76.38;;;9.90;96.90;;;;;;5049496;28;20397;-76
2023/01/22 05:29:25;;;;;;;80.78;77.78;;;9.90;96.90;;;;;;5050442;28;20033;-76
2023/01/22 05:31:56;;;;;;;76.32;73.43;;;9.90;96.90;;;;;;5033150;28;20029;-76
2023/01/22 05:34:22;;;;;;;77.50;74.60;;;9.90;96.90;;;;;;5051119;28;20028;-76
2023/01/22 05:36:48;;;;;;;77.25;74.35;;;9.90;96.90;;;;;;5050274;28;20091;-76
2023/01/22 05:39:15;;;;;;;80.15;77.15;;;9.90;96.90;;;;;;5050656;28;20025;-76
2023/01/22 05:41:41;;;;;;;77.18;74.28;;;9.90;96.90;;;;;;5048963;28;20029;-76
2023/01/22 05:44:10;;;;;;;77.60;74.70;;;10.00;96.90;;;;;;5050473;28;20040;-76
2023/01/22 05:46:36;;;;;;;81.72;78.63;;;10.00;96.90;;;;;;5032566;28;20334;-76
2023/01/22 05:49:01;;;;;;;82.30;79.20;;;10.00;96.90;;;;;;5050196;28;20362;-76
2023/01/22 05:51:27;;;;;;;85.25;82.05;;;10.00;96.90;;;;;;5050136;28;20036;-75
2023/01/22 05:53:53;;;;;;;85.47;82.28;;;10.00;96.90;;;;;;5049014;28;20025;-76
2023/01/22 05:56:18;;;;;;;83.55;80.43;;;10.00;96.90;;;;;;5050135;28;20037;-76
2023/01/22 05:58:44;;;;;;;86.25;83.05;;;9.90;96.90;;;;;;5048836;28;20183;-76
2023/01/22 06:01:10;;;;;;;86.07;82.85;;;9.90;96.90;;;;;;5047978;28;20132;-76
2023/01/22 06:03:36;;;;;;;84.07;80.90;;;9.90;96.90;;;;;;5050811;28;20029;-76
2023/01/22 06:06:03;;;;;;;;;;;9.90;96.90;;;;;;5050816;28;20437;-77
2023/01/22 06:08:30;;;;;;;84.20;81.00;;;10.00;96.90;;;;;;5048973;28;20258;-77
2023/01/22 06:11:07;;;;;;;83.15;80.05;;;9.90;96.90;;;;;;5050112;28;20124;-76
2023/01/22 06:13:33;;;;;;;85.30;82.10;;;10.00;96.90;;;;;;5048581;28;20467;-76
2023/01/22 06:15:59;;;;;;;86.45;83.18;;;10.00;96.90;;;;;;5032227;28;20132;-76
2023/01/22 06:18:25;;;;;;;;;;;10.00;96.90;;;;;;5032807;28;20036;-76
2023/01/22 06:20:51;;;;;;;87.10;83.80;;;10.00;96.90;;;;;;5049819;28;19904;-76
2023/01/22 06:23:17;;;;;;;87.20;83.90;;;10.00;96.90;;;;;;5032093;28;20378;-76
2023/01/22 06:25:43;;;;;;;;;;;10.00;96.90;;;;;;5049147;28;20126;-76
2023/01/22 06:28:09;;;;;;;84.43;81.22;;;10.00;96.90;;;;;;5049903;28;20283;-76
2023/01/22 06:30:36;;;;;;;89.82;86.43;;;10.00;96.90;;;;;;5048432;28;20036;-76
2023/01/22 06:33:02;;;;;;;87.13;83.82;;;10.00;96.90;;;;;;5048110;28;20030;-76
2023/01/22 06:35:27;;;;;;;86.10;82.80;;;10.00;96.90;;;;;;5048402;28;20033;-76
2023/01/22 06:37:53;;;;;;;88.05;84.75;;;10.00;96.90;;;;;;5048224;28;20513;-76
2023/01/22 06:40:19;;;;;;;84.97;81.78;;;10.00;96.90;;;;;;5031524;28;20105;-76
2023/01/22 06:42:44;;;;;;;84.90;81.70;;;10.00;96.90;;;;;;5031432;28;20048;-76
2023/01/22 06:45:10;;;;;;;87.90;84.60;;;10.00;96.90;;;;;;5031608;28;20032;-76
2023/01/22 06:47:36;;;;;;;86.47;83.18;;;10.00;96.90;;;;;;5047984;28;20657;-76
2023/01/22 06:50:02;;;;;;;91.53;88.03;;;10.00;96.90;;;;;;5049147;28;20113;-76
2023/01/22 06:52:28;;;;;;;;;;;10.00;96.90;;;;;;5048201;28;20033;-76
2023/01/22 06:54:54;;;;;;;94.57;90.97;;;10.00;96.90;;;;;;5047643;28;19912;-76
2023/01/22 06:57:19;;;;;;;96.70;93.00;;;10.00;96.80;;;;;;5047849;28;20045;-76
2023/01/22 06:59:45;;;;;;;100.50;96.70;;;10.00;96.80;;;;;;5030502;28;20413;-76
2023/01/22 07:02:18;;;;;;;99.93;96.10;;;9.90;96.80;;;;;;5048754;28;20101;-76
2023/01/22 07:04:43;;;;;;;98.00;94.20;;;9.90;96.80;;;;;;5047358;28;20029;-76
2023/01/22 07:07:09;;;;;;;99.88;95.97;;;9.90;96.90;;;;;;5047628;28;20033;-77
2023/01/22 07:09:35;;;;;;;98.88;95.07;;;9.90;96.90;;;;;;5047686;28;20142;-76
2023/01/22 07:12:01;;;;;;;100.13;96.22;;;9.90;96.90;;;;;;5047405;28;20500;-76
2023/01/22 07:14:27;;;;;;;98.57;94.78;;;9.90;96.90;;;;;;5047351;28;20389;-75
2023/01/22 07:16:54;;;;;;;96.65;92.88;;;9.90;96.90;;;;;;5047324;28;20111;-76
2023/01/22 07:19:20;;;;;;;100.43;96.53;;;9.90;96.90;;;;;;5048426;28;20041;-76
2023/01/22 07:21:46;;;;;;;97.57;93.78;;;9.90;96.90;;;;;;5047180;28;20393;-76
2023/01/22 07:24:11;;;;;;;93.55;89.95;;;10.00;97.00;;;;;;5047168;28;20040;-76
2023/01/22 07:26:40;;;;;;;93.50;89.90;;;10.00;96.90;;;;;;5047228;28;20039;-76
2023/01/22 07:29:06;;;;;;;93.45;89.85;;;10.00;97.00;;;;;;5048156;28;20065;-76
2023/01/22 07:31:31;;;;;;;92.93;89.32;;;10.00;97.00;;;;;;5046987;28;20098;-76
2023/01/22 07:33:57;;;;;;;90.45;86.93;;;10.00;97.00;;;;;;5048279;28;20090;-76
2023/01/22 07:36:23;;;;;;;91.63;88.07;;;10.10;97.00;;;;;;5048332;28;20032;-76
2023/01/22 07:38:48;;;;;;;91.45;87.95;;;10.10;97.00;;;;;;5047254;28;20032;-77
2023/01/22 07:41:14;;;;;;;91.95;88.45;;;10.10;97.00;;;;;;5030554;28;20079;-76
2023/01/22 07:43:40;;;;;;;92.45;88.88;;;10.10;97.00;;;;;;5047084;28;20044;-76
2023/01/22 07:46:06;;;;;;;92.97;89.38;;;10.20;97.00;;;;;;5048244;28;20033;-77
2023/01/22 07:48:32;;;;;;;90.38;86.88;;;10.20;97.00;;;;;;5048357;28;20107;-76
2023/01/22 07:51:03;;;;;;;93.88;90.28;;;10.20;97.00;;;;;;5048264;28;20116;-76
2023/01/22 07:53:29;;;;;;;90.22;86.72;;;10.20;97.00;;;;;;5047962;28;20086;-77
2023/01/22 07:55:55;;;;;;;88.88;85.43;;;10.30;97.00;;;;;;5046579;28;20033;-76
2023/01/22 07:58:21;;;;;;;91.45;87.85;;;10.30;97.00;;;;;;5047507;28;20203;-76
2023/01/22 08:00:49;;;;;;;88.28;84.88;;;10.30;97.00;;;;;;5047588;28;20074;-76
2023/01/22 08:03:15;;;;;;;91.43;87.82;;;10.30;97.00;;;;;;5029814;28;20064;-76
2023/01/22 08:05:41;;;;;;;;;;;10.30;97.00;;;;;;5046968;28;20074;-76
2023/01/22 08:08:21;;;;;;;89.40;85.90;;;10.40;97.00;;;;;;5046652;28;20365;-76
2023/01/22 08:10:47;;;;;;;92.40;88.80;;;10.30;96.90;;;;;;5046106;28;20491;-76
2023/01/22 08:13:13;;;;;;;92.18;88.57;;;10.40;97.00;;;;;;5013534;28;20033;-76
2023/01/22 08:15:40;;;;;;;90.70;87.13;;;10.30;97.00;;;;;;5046286;28;20037;-76
2023/01/22 08:18:06;;;;;;;87.90;84.40;;;10.40;97.00;;;;;;5046140;28;20071;-76
2023/01/22 08:20:32;;;;;;;91.10;87.50;;;10.30;97.00;;;;;;5046066;28;20149;-76
2023/01/22 08:22:59;;;;;;;87.82;84.32;;;10.30;97.00;;;;;;5046477;28;20111;-76
2023/01/22 08:25:26;;;;;;;91.07;87.47;;;10.30;97.00;;;;;;5033754;28;20033;-77
2023/01/22 08:27:51;;;;;;;88.53;85.03;;;10.30;97.00;;;;;;5054138;28;20033;-78
2023/01/22 08:30:17;;;;;;;89.43;85.93;;;10.30;97.00;;;;;;5052712;28;20507;-76
2023/01/22 08:32:46;;;;;;;91.10;87.50;;;10.30;97.00;;;;;;5054091;28;20044;-77
2023/01/22 08:35:12;;;;;;;91.25;87.65;;;10.40;97.00;;;;;;5052568;28;20429;-78
2023/01/22 08:37:38;;;;;;;88.13;84.65;;;10.30;97.00;;;;;;5036124;28;20044;-76
2023/01/22 08:40:05;;;;;;;90.07;86.57;;;10.40;97.00;;;;;;5052511;28;20033;-76
2023/01/22 08:42:31;;;;;;;94.07;90.38;;;10.30;97.00;;;;;;5052433;28;20032;-77
2023/01/22 08:44:57;;;;;;;91.18;87.57;;;10.40;97.00;;;;;;5019822;28;20025;-76
2023/01/22 08:47:23;;;;;;;93.82;90.15;;;10.40;97.00;;;;;;5052601;28;20489;-76
2023/01/22 08:49:49;;;;;;;93.07;89.40;;;10.40;97.00;;;;;;5053755;28;20041;-78
2023/01/22 08:52:15;;;;;;;90.88;87.28;;;10.40;97.00;;;;;;5053764;28;20039;-77
2023/01/22 08:54:41;;;;;;;90.60;87.03;;;10.40;97.00;;;;;;5053900;28;20108;-76
2023/01/22 08:57:07;;;;;;;92.53;88.82;;;10.40;97.00;;;;;;5052553;28;20037;-77
2023/01/22 08:59:32;;;;;;;91.25;87.65;;;10.50;97.00;;;;;;5053334;28;20049;-78
2023/01/22 09:01:59;;;;;;;90.07;86.47;;;10.50;97.10;;;;;;5053684;28;20083;-77
2023/01/22 09:04:25;;;;;;;95.18;91.38;;;10.50;97.10;;;;;;5052277;28;20032;-76
2023/01/22 09:06:50;;;;;;;94.28;90.50;;;10.50;97.10;;;;;;5053682;28;20029;-76
2023/01/22 09:09:16;;;;;;;96.93;93.13;;;10.50;97.10;;;;;;5052257;28;20029;-76
2023/01/22 09:11:43;;;;;;;96.32;92.53;;;10.50;97.10;;;;;;5053659;28;20465;-76
2023/01/22 09:14:08;;;;;;;94.57;90.82;;;10.60;97.10;;;;;;5052774;28;20037;-77
2023/01/22 09:16:35;;;;;;;95.13;91.32;;;10.60;97.10;;;;;;5053703;28;20036;-76
2023/01/22 09:19:00;;;;;;;;;;;10.60;97.10;;;;;;5036385;28;20124;-77
2023/01/22 09:21:26;;;;;;;96.15;92.35;;;10.70;97.10;;;;;;5053699;28;20401;-77
2023/01/22 09:23:52;;;;;;;95.43;91.63;;;10.70;97.10;;;;;;5053326;28;20036;-77
2023/01/22 09:26:18;;;;;;;96.40;92.60;;;10.70;97.10;;;;;;5035321;28;20033;-77
2023/01/22 09:28:44;;;;;;;95.82;92.03;;;10.70;97.10;;;;;;5053202;28;20033;-77
2023/01/22 09:31:14;;;;;;;94.88;91.13;;;10.70;97.10;;;;;;5051637;28;20428;-77
2023/01/22 09:33:40;;;;;;;95.78;91.97;;;10.80;97.10;;;;;;5035296;28;20033;-77
2023/01/22 09:36:14;;;;;;;93.90;90.20;;;10.80;97.10;;;;;;5052300;28;20036;-77
2023/01/22 09:38:40;;;;;;;93.45;89.75;;;10.90;97.10;;;;;;5049125;28;20477;-78
2023/01/22 09:41:15;;;;;;;94.25;90.55;;;10.90;97.10;;;;;;5049038;28;20029;-77
2023/01/22 09:43:49;;;;;;;91.47;87.88;;;10.90;97.10;;;;;;5050182;28;20036;-76
2023/01/22 09:46:27;;;;;;;94.95;91.15;;;11.00;97.10;;;;;;5050039;28;20032;-77
2023/01/22 09:48:59;;;;;;;94.68;90.97;;;11.00;97.10;;;;;;5048489;28;20041;-76
2023/01/22 09:51:25;;;;;;;93.80;90.10;;;11.10;97.10;;;;;;5048588;28;20064;-77
2023/01/22 09:53:58;;;;;;;;;;;11.10;97.10;;;;;;5050306;28;20036;-76
2023/01/22 09:56:34;;;;;;;91.35;87.75;;;11.20;97.20;;;;;;5048271;28;20286;-76
2023/01/22 09:59:03;;;;;;;93.07;89.40;;;11.20;97.10;;;;;;5048110;28;20458;-76
2023/01/22 10:01:29;;;;;;;90.65;87.05;;;11.30;97.10;;;;;;5049599;28;20469;-76
2023/01/22 10:04:11;;;;;;;89.90;86.40;;;11.30;97.20;;;;;;5048234;28;20026;-77
2023/01/22 10:06:39;;;;;;;91.63;88.03;;;11.40;97.20;;;;;;5049523;28;20033;-77
2023/01/22 10:09:18;;;;;;;89.57;86.07;;;11.40;97.10;;;;;;5049378;28;20029;-77
2023/01/22 10:11:48;;;;;;;87.20;83.80;;;11.50;97.20;;;;;;5049380;28;20033;-77
2023/01/22 10:14:17;;;;;;;86.85;83.45;;;11.60;97.20;;;;;;5048043;28;20040;-76
2023/01/22 10:16:44;;;;;;;86.68;83.35;;;11.70;97.10;;;;;;5048063;28;20033;-77
2023/01/22 10:19:41;;;;;;;85.90;82.60;;;11.70;97.10;;;;;;5049208;28;20144;-76
2023/01/22 10:22:17;;;;;;;88.78;85.35;;;11.80;97.10;;;;;;5034617;28;20490;-76
2023/01/22 10:24:43;;;;;;;86.80;83.43;;;11.80;97.10;;;;;;5047934;28;20396;-76
2023/01/22 10:27:15;;;;;;;89.18;85.70;;;11.80;97.10;;;;;;5031069;28;20033;-76
2023/01/22 10:30:01;;;;;;;87.15;83.75;;;11.80;97.10;;;;;;5049262;28;20093;-76
2023/01/22 10:32:29;;;;;;;84.47;81.18;;;11.80;97.10;;;;;;5049078;28;20438;-77
2023/01/22 10:35:06;;;;;;;87.90;84.50;;;11.80;97.10;;;;;;5047690;28;20045;-77
2023/01/22 10:37:45;;;;;;;86.85;83.45;;;11.80;97.10;;;;;;5047474;28;20384;-76
2023/01/22 10:40:24;;;;;;;82.97;79.68;;;11.80;97.10;;;;;;5048912;28;20013;-77
2023/01/22 10:43:03;;;;;;;91.25;87.75;;;11.80;97.20;;;;;;5048634;28;20560;-76
2023/01/22 10:45:28;;;;;;;87.47;83.97;;;11.80;97.10;;;;;;5047426;28;20031;-76
2023/01/22 10:48:24;;;;;;;87.70;84.30;;;11.70;97.10;;;;;;5049185;28;20096;-76
2023/01/22 10:51:02;;;;;;;85.28;81.88;;;11.70;97.20;;;;;;5039151;28;20104;-77
2023/01/22 10:53:37;;;;;;;85.55;82.15;;;11.80;97.20;;;;;;5047381;28;20108;-77
2023/01/22 10:56:06;;;;;;;84.82;81.43;;;11.80;97.20;;;;;;5047269;28;20366;-77
2023/01/22 10:58:35;;;;;;;82.30;79.03;;;11.90;97.20;;;;;;5047891;28;20404;-76
2023/01/22 11:01:20;;;;;;;82.72;79.43;;;12.00;97.30;;;;;;5047840;28;20024;-76
2023/01/22 11:03:46;;;;;;;75.93;72.93;;;12.00;97.20;;;;;;5048296;28;20457;-75
2023/01/22 11:06:39;;;;;;;75.32;72.32;;;12.10;97.20;;;;;;5048244;28;20036;-75
2023/01/22 11:09:14;;;;;;;73.45;70.55;;;12.20;97.30;;;;;;5038361;28;20064;-76
2023/01/22 11:11:47;;;;;;;73.30;70.40;;;12.20;97.30;;;;;;5047799;28;20020;-76
2023/01/22 11:14:19;;;;;;;74.93;72.00;;;12.30;97.20;;;;;;5047937;28;20024;-76
2023/01/22 11:16:48;;;;;;;72.82;69.93;;;12.30;97.20;;;;;;5046563;28;20035;-78
2023/01/22 11:19:19;;;;;;;72.85;69.95;;;12.40;97.20;;;;;;5048059;28;20044;-77
2023/01/22 11:21:51;;;;;;;71.70;68.88;;;12.40;97.20;;;;;;5047850;28;20029;-78
2023/01/22 11:24:27;;;;;;;72.72;69.93;;;12.40;97.20;;;;;;5047638;28;20021;-77
2023/01/22 11:27:02;;;;;;;68.47;65.78;;;12.40;97.20;;;;;;5047651;28;20032;-77
2023/01/22 11:29:27;;;;;;;65.80;63.20;;;12.40;97.20;;;;;;5047511;28;20032;-76
2023/01/22 11:31:59;;;;;;;56.40;54.20;;;12.40;97.30;;;;;;5047672;28;20388;-77
2023/01/22 11:34:40;;;;;;;47.15;45.35;;;12.60;97.60;;;;;;5045994;28;20390;-77
2023/01/22 11:37:13;;;;;;;42.40;40.80;;;13.10;97.90;;;;;;5046427;28;20143;-77
2023/01/22 11:39:58;;;;;;;46.92;45.13;;;13.50;98.00;;;;;;5047724;28;20021;-78
2023/01/22 11:42:58;;;;;;;42.15;40.55;;;14.00;97.80;;;;;;5047536;28;20025;-76
2023/01/22 11:45:49;;;;;;;40.85;39.35;;;14.20;97.50;;;;;;5046270;28;20377;-77
2023/01/22 11:48:36;;;;;;;42.50;40.90;;;14.40;97.50;;;;;;5046075;28;20039;-77
2023/01/22 11:51:10;;;;;;;43.50;41.90;;;14.60;97.40;;;;;;5045859;28;20067;-76
2023/01/22 11:54:13;;;;;;;44.67;42.97;;;14.60;97.20;;;;;;5045994;28;20025;-77
2023/01/22 11:57:29;;;;;;;39.38;37.88;;;14.60;97.20;;;;;;5045584;28;20040;-76
2023/01/22 12:00:15;;;;;;;36.58;35.17;;;14.70;97.50;;;;;;5004064;28;20045;-78
2023/01/22 12:02:59;;;;;;;32.63;31.42;;;14.90;97.40;;;;;;5043852;28;20036;-76
2023/01/22 12:05:59;;;;;;;32.25;31.05;;;15.00;97.30;;;;;;5047699;28;20032;-77
2023/01/22 12:08:37;;;;;;;27.42;26.33;;;15.10;97.60;;;;;;5047391;28;20032;-76
2023/01/22 12:11:30;;;;;;;18.65;17.85;;;15.50;98.00;;;;;;5046996;28;20307;-77
2023/01/22 12:14:21;;;;;;;17.52;16.83;;;16.20;98.20;;;;;;5045529;28;20025;-77
2023/01/22 12:17:08;;;;;;;15.75;15.05;;;16.40;97.70;;;;;;5045194;28;20031;-77
2023/01/22 12:19:45;;;;;;;18.75;17.95;;;16.60;97.60;;;;;;5046692;28;20385;-77
2023/01/22 12:22:29;;;;;;;19.10;18.30;;;16.50;97.20;;;;;;5047099;28;20513;-76
2023/01/22 12:25:14;;;;;;;19.45;18.65;;;16.30;97.30;;;;;;5047349;28;20055;-77
2023/01/22 12:27:46;;;;;;;22.65;21.75;;;16.20;97.10;;;;;;5046112;28;20576;-77
2023/01/22 12:30:17;;;;;;;22.00;21.10;;;16.00;97.50;;;;;;5046855;28;20029;-77
2023/01/22 12:32:59;;;;;;;21.70;20.80;;;15.90;97.40;;;;;;5045310;28;20082;-77
2023/01/22 12:35:29;;;;;;;25.60;24.60;;;15.70;97.10;;;;;;5045440;28;20033;-77
2023/01/22 12:38:14;;;;;;;24.65;23.65;;;15.50;97.20;;;;;;5045257;28;20465;-77
2023/01/22 12:40:58;;;;;;;22.83;21.92;;;15.30;97.30;;;;;;5045066;28;20139;-77
2023/01/22 12:43:42;;;;;;;21.75;20.85;;;15.30;97.70;;;;;;5046226;28;20017;-77
2023/01/22 12:46:29;;;;;;;19.50;18.70;;;15.50;97.80;;;;;;5046944;28;20103;-77
2023/01/22 12:48:58;;;;;;;;;;;15.50;97.60;;;;;;5045540;28;20032;-78
2023/01/22 12:51:40;;;;;;;23.02;22.13;;;15.40;97.40;;;;;;5046617;28;19923;-77
2023/01/22 12:54:20;;;;;;;26.23;25.23;;;15.20;97.30;;;;;;5046915;28;20030;-77
2023/01/22 12:56:47;;;;;;;25.13;24.13;;;15.10;97.30;;;;;;5044492;28;20207;-77